createdAt,value
2023-03-26T00:00:22.983Z,6.29
2023-03-26T00:01:22.992Z,6.28
2023-03-26T00:02:23.052Z,6.29
2023-03-26T00:03:23.022Z,6.30
2023-03-26T00:04:23.025Z,6.26
2023-03-26T00:05:23.092Z,6.23
2023-03-26T00:06:23.040Z,6.24
2023-03-26T00:07:23.055Z,6.23
2023-03-26T00:08:23.062Z,6.20
2023-03-26T00:09:23.076Z,6.19
2023-03-26T00:10:23.090Z,6.17
2023-03-26T00:11:23.104Z,6.15
2023-03-26T00:12:23.113Z,6.14
2023-03-26T00:13:23.123Z,6.15
2023-03-26T00:14:23.129Z,6.16
2023-03-26T00:15:23.140Z,6.14
2023-03-26T00:16:23.185Z,6.14
2023-03-26T00:17:23.172Z,6.16
2023-03-26T00:18:23.183Z,6.17
2023-03-26T00:19:23.197Z,6.17
2023-03-26T00:20:23.206Z,6.17
2023-03-26T00:21:23.217Z,6.20
2023-03-26T00:22:23.235Z,6.20
2023-03-26T00:23:23.245Z,6.20
2023-03-26T00:24:23.252Z,6.21
2023-03-26T00:25:23.260Z,6.23
2023-03-26T00:26:23.283Z,6.25
2023-03-26T00:27:23.290Z,6.24
2023-03-26T00:28:23.308Z,6.24
2023-03-26T00:29:23.324Z,6.24
2023-03-26T00:30:23.337Z,6.25
2023-03-26T00:31:23.376Z,6.26
2023-03-26T00:32:23.342Z,6.28
2023-03-26T00:33:23.363Z,6.26
2023-03-26T00:34:23.375Z,6.26
2023-03-26T00:35:23.388Z,6.24
2023-03-26T00:36:23.420Z,6.24
2023-03-26T00:37:23.416Z,6.23
2023-03-26T00:38:23.439Z,6.24
2023-03-26T00:39:23.443Z,6.25
2023-03-26T00:40:23.469Z,6.27
2023-03-26T00:41:23.489Z,6.28
2023-03-26T00:42:23.488Z,6.29
2023-03-26T00:43:23.500Z,6.30
2023-03-26T01:01:24.064Z,6.21
2023-03-26T01:02:23.770Z,6.17
2023-03-26T01:03:26.568Z,6.18
2023-03-26T01:04:23.859Z,6.18
2023-03-26T01:05:23.798Z,6.22
2023-03-26T01:06:23.763Z,6.15
2023-03-26T01:07:23.767Z,6.12
2023-03-26T01:08:23.779Z,6.08
2023-03-26T01:09:23.805Z,6.08
2023-03-26T01:10:23.816Z,6.01
2023-03-26T01:11:23.854Z,6.00
2023-03-26T01:12:23.845Z,5.98
2023-03-26T01:13:23.845Z,5.96
2023-03-26T01:14:23.924Z,5.96
2023-03-26T01:15:23.869Z,5.97
2023-03-26T01:16:23.903Z,5.96
2023-03-26T01:17:23.925Z,5.99
2023-03-26T01:18:23.898Z,5.98
2023-03-26T01:19:23.914Z,5.98
2023-03-26T01:20:23.929Z,5.99
2023-03-26T01:21:23.946Z,6.01
2023-03-26T01:22:23.964Z,6.03
2023-03-26T01:23:23.972Z,6.07
2023-03-26T01:24:23.988Z,6.10
2023-03-26T01:25:24.005Z,6.12
2023-03-26T01:26:24.016Z,6.10
2023-03-26T01:27:24.036Z,6.10
2023-03-26T01:28:24.051Z,6.08
2023-03-26T01:29:24.072Z,6.09
2023-03-26T01:30:24.077Z,6.09
2023-03-26T01:31:24.093Z,6.07
2023-03-26T01:32:24.228Z,6.07
2023-03-26T01:33:24.154Z,6.05
2023-03-26T01:34:24.135Z,6.04
2023-03-26T01:35:24.196Z,6.02
2023-03-26T01:36:24.160Z,6.03
2023-03-26T01:37:24.169Z,6.03
2023-03-26T01:38:24.181Z,6.02
2023-03-26T01:39:24.197Z,6.00
2023-03-26T01:40:24.210Z,5.95
2023-03-26T01:41:24.223Z,5.89
2023-03-26T01:42:24.232Z,5.85
2023-03-26T01:43:24.256Z,5.76
2023-03-26T01:44:24.258Z,5.74
2023-03-26T01:45:24.271Z,5.70
2023-03-26T01:46:24.297Z,5.66
2023-03-26T01:47:24.291Z,5.69
2023-03-26T01:48:24.289Z,5.66
2023-03-26T01:49:24.297Z,5.64
2023-03-26T01:50:24.300Z,5.61
2023-03-26T01:51:24.314Z,5.60
2023-03-26T01:52:24.317Z,5.59
2023-03-26T01:53:24.328Z,5.55
2023-03-26T01:54:24.338Z,5.50
2023-03-26T01:55:24.347Z,5.47
2023-03-26T01:56:24.353Z,5.42
2023-03-26T01:57:24.363Z,5.37
2023-03-26T01:58:24.369Z,5.32
2023-03-26T01:59:24.377Z,5.29
2023-03-26T02:00:24.419Z,5.27
2023-03-26T02:01:24.478Z,5.25
2023-03-26T02:02:24.490Z,5.24
2023-03-26T02:03:24.468Z,5.22
2023-03-26T02:04:24.412Z,5.22
2023-03-26T02:05:24.426Z,5.21
2023-03-26T02:06:24.425Z,5.18
2023-03-26T02:07:24.435Z,5.20
2023-03-26T02:08:24.445Z,5.16
2023-03-26T02:09:24.450Z,5.15
2023-03-26T02:10:24.460Z,5.14
2023-03-26T02:11:30.322Z,5.13
2023-03-26T02:12:24.469Z,5.14
2023-03-26T02:13:24.479Z,5.13
2023-03-26T02:14:24.485Z,5.12
2023-03-26T02:15:24.493Z,5.10
2023-03-26T02:16:24.509Z,5.10
2023-03-26T02:17:24.649Z,5.08
2023-03-26T02:18:24.514Z,5.10
2023-03-26T02:19:24.527Z,5.12
2023-03-26T02:20:24.531Z,5.14
2023-03-26T02:21:24.541Z,5.14
2023-03-26T02:22:24.548Z,5.15
2023-03-26T02:23:24.562Z,5.18
2023-03-26T02:24:24.565Z,5.18
2023-03-26T02:25:24.576Z,5.17
2023-03-26T02:26:24.585Z,5.20
2023-03-26T02:27:24.591Z,5.23
2023-03-26T02:28:24.598Z,5.23
2023-03-26T02:29:24.608Z,5.28
2023-03-26T02:30:24.614Z,5.27
2023-03-26T02:31:24.651Z,5.26
2023-03-26T02:32:24.744Z,5.27
2023-03-26T02:33:24.647Z,5.27
2023-03-26T02:34:24.647Z,5.25
2023-03-26T02:35:24.707Z,5.22
2023-03-26T02:36:24.864Z,5.21
2023-03-26T02:37:24.672Z,5.16
2023-03-26T02:38:24.676Z,5.11
2023-03-26T02:39:24.687Z,5.08
2023-03-26T02:40:24.701Z,5.06
2023-03-26T02:41:24.725Z,5.05
2023-03-26T02:42:24.713Z,5.07
2023-03-26T02:43:24.720Z,5.07
2023-03-26T02:44:24.731Z,5.10
2023-03-26T02:45:24.738Z,5.11
2023-03-26T02:46:24.768Z,5.13
2023-03-26T02:47:24.782Z,5.16
2023-03-26T02:48:24.754Z,5.18
2023-03-26T02:49:24.765Z,5.20
2023-03-26T02:50:24.770Z,5.22
2023-03-26T02:51:24.784Z,5.21
2023-03-26T02:52:24.796Z,5.22
2023-03-26T02:53:24.805Z,5.22
2023-03-26T02:54:24.809Z,5.22
2023-03-26T02:55:24.820Z,5.25
2023-03-26T02:56:24.824Z,5.30
2023-03-26T02:57:24.830Z,5.34
2023-03-26T02:58:24.837Z,5.35
2023-03-26T02:59:24.844Z,5.37
2023-03-26T03:00:24.848Z,5.38
2023-03-26T03:01:24.901Z,5.38
2023-03-26T03:02:24.908Z,5.37
2023-03-26T03:03:24.878Z,5.34
2023-03-26T03:04:24.874Z,5.27
2023-03-26T03:05:24.879Z,5.23
2023-03-26T03:06:24.883Z,5.17
2023-03-26T03:07:24.892Z,5.14
2023-03-26T03:08:24.898Z,5.11
2023-03-26T03:09:24.908Z,5.02
2023-03-26T03:10:24.910Z,4.99
2023-03-26T03:11:25.096Z,4.98
2023-03-26T03:12:24.920Z,4.96
2023-03-26T03:13:24.927Z,4.93
2023-03-26T03:14:24.938Z,4.91
2023-03-26T03:15:24.940Z,4.84
2023-03-26T03:16:24.966Z,4.80
2023-03-26T03:17:24.987Z,4.75
2023-03-26T03:18:25.042Z,4.68
2023-03-26T03:19:24.968Z,4.65
2023-03-26T03:20:24.972Z,4.61
2023-03-26T03:21:24.976Z,4.61
2023-03-26T03:22:24.982Z,4.59
2023-03-26T03:23:24.992Z,4.61
2023-03-26T03:24:25.046Z,4.58
2023-03-26T03:25:25.006Z,4.60
2023-03-26T03:26:25.011Z,4.59
2023-03-26T03:27:25.030Z,4.59
2023-03-26T03:28:25.024Z,4.56
2023-03-26T03:29:25.034Z,4.57
2023-03-26T03:30:25.043Z,4.55
2023-03-26T03:31:25.065Z,4.55
2023-03-26T03:32:25.093Z,4.52
2023-03-26T03:33:25.069Z,4.53
2023-03-26T03:34:25.081Z,4.54
2023-03-26T03:35:25.104Z,4.53
2023-03-26T03:36:25.090Z,4.51
2023-03-26T03:37:25.093Z,4.49
2023-03-26T03:38:25.100Z,4.49
2023-03-26T03:39:25.103Z,4.50
2023-03-26T03:40:25.127Z,4.49
2023-03-26T03:41:25.117Z,4.49
2023-03-26T03:42:25.126Z,4.51
2023-03-26T03:43:25.131Z,4.54
2023-03-26T03:44:25.142Z,4.56
2023-03-26T03:45:25.147Z,4.57
2023-03-26T03:46:25.185Z,4.59
2023-03-26T03:47:25.191Z,4.61
2023-03-26T03:48:25.174Z,4.61
2023-03-26T03:49:25.184Z,4.63
2023-03-26T03:50:25.197Z,4.65
2023-03-26T03:51:25.195Z,4.64
2023-03-26T03:52:25.199Z,4.65
2023-03-26T03:53:25.204Z,4.65
2023-03-26T03:54:25.210Z,4.65
2023-03-26T03:55:25.218Z,4.67
2023-03-26T03:56:25.225Z,4.66
2023-03-26T03:57:25.228Z,4.67
2023-03-26T03:58:25.236Z,4.67
2023-03-26T03:59:25.249Z,4.69
2023-03-26T04:00:25.263Z,4.70
2023-03-26T04:01:25.255Z,4.70
2023-03-26T04:02:25.281Z,4.72
2023-03-26T04:03:33.445Z,4.76
2023-03-26T04:04:25.277Z,4.75
2023-03-26T04:05:25.276Z,4.73
2023-03-26T04:06:25.305Z,4.72
2023-03-26T04:07:25.287Z,4.74
2023-03-26T04:08:25.294Z,4.76
2023-03-26T04:09:25.301Z,4.76
2023-03-26T04:10:25.317Z,4.78
2023-03-26T04:11:25.312Z,4.77
2023-03-26T04:12:25.323Z,4.80
2023-03-26T04:13:25.334Z,4.81
2023-03-26T04:14:25.341Z,4.83
2023-03-26T04:15:25.352Z,4.84
2023-03-26T04:16:25.397Z,4.83
2023-03-26T04:17:25.389Z,4.84
2023-03-26T04:18:25.373Z,4.84
2023-03-26T04:19:25.379Z,4.82
2023-03-26T04:20:25.388Z,4.80
2023-03-26T04:21:25.395Z,4.79
2023-03-26T04:22:25.404Z,4.78
2023-03-26T04:23:25.410Z,4.82
2023-03-26T04:24:25.422Z,4.82
2023-03-26T04:25:25.427Z,4.84
2023-03-26T04:26:25.433Z,4.84
2023-03-26T04:27:25.443Z,4.85
2023-03-26T04:28:25.450Z,4.82
2023-03-26T04:29:25.455Z,4.79
2023-03-26T04:30:25.470Z,4.76
2023-03-26T04:31:25.488Z,4.74
2023-03-26T04:32:25.481Z,4.69
2023-03-26T04:33:25.484Z,4.68
2023-03-26T04:34:25.491Z,4.64
2023-03-26T04:35:25.520Z,4.61
2023-03-26T04:36:25.500Z,4.61
2023-03-26T04:37:25.509Z,4.61
2023-03-26T04:38:25.513Z,4.64
2023-03-26T04:39:25.520Z,4.69
2023-03-26T04:40:25.527Z,4.69
2023-03-26T04:41:25.532Z,4.72
2023-03-26T04:42:25.538Z,4.75
2023-03-26T04:43:25.543Z,4.77
2023-03-26T04:44:25.550Z,4.76
2023-03-26T04:45:25.558Z,4.76
2023-03-26T04:46:25.580Z,4.77
2023-03-26T04:47:25.577Z,4.80
2023-03-26T04:48:25.576Z,4.84
2023-03-26T04:49:25.583Z,4.83
2023-03-26T04:50:25.593Z,4.82
2023-03-26T04:51:25.601Z,4.80
2023-03-26T04:52:25.608Z,4.78
2023-03-26T04:53:25.614Z,4.80
2023-03-26T04:54:25.622Z,4.76
2023-03-26T04:55:25.638Z,4.73
2023-03-26T04:56:25.637Z,4.69
2023-03-26T04:57:25.646Z,4.66
2023-03-26T04:58:25.650Z,4.61
2023-03-26T04:59:25.655Z,4.54
2023-03-26T05:00:25.666Z,4.45
2023-03-26T05:01:25.683Z,4.42
2023-03-26T05:02:25.694Z,4.35
2023-03-26T05:03:25.694Z,4.29
2023-03-26T05:04:25.725Z,4.25
2023-03-26T05:05:25.705Z,4.20
2023-03-26T05:06:25.709Z,4.18
2023-03-26T05:07:25.722Z,4.15
2023-03-26T05:08:25.725Z,4.13
2023-03-26T05:09:25.730Z,4.09
2023-03-26T05:10:25.744Z,4.05
2023-03-26T05:11:25.745Z,4.05
2023-03-26T05:12:25.764Z,3.99
2023-03-26T05:13:25.763Z,3.96
2023-03-26T05:14:25.767Z,3.94
2023-03-26T05:15:25.789Z,3.94
2023-03-26T05:16:25.828Z,3.93
2023-03-26T05:17:25.835Z,3.92
2023-03-26T05:18:25.799Z,3.90
2023-03-26T05:19:25.808Z,3.87
2023-03-26T05:20:25.814Z,3.89
2023-03-26T05:21:25.830Z,3.91
2023-03-26T05:22:25.832Z,3.93
2023-03-26T05:23:25.846Z,3.93
2023-03-26T05:24:25.847Z,3.96
2023-03-26T05:25:25.851Z,3.99
2023-03-26T05:26:25.858Z,4.01
2023-03-26T05:27:25.866Z,4.02
2023-03-26T05:28:25.872Z,3.99
2023-03-26T05:29:25.879Z,3.96
2023-03-26T05:30:25.891Z,3.94
2023-03-26T05:31:25.892Z,3.98
2023-03-26T05:32:25.906Z,4.00
2023-03-26T05:33:25.975Z,4.05
2023-03-26T05:34:25.912Z,4.14
2023-03-26T05:35:25.960Z,4.21
2023-03-26T05:36:25.931Z,4.27
2023-03-26T05:37:25.934Z,4.27
2023-03-26T05:38:25.941Z,4.29
2023-03-26T05:39:25.953Z,4.31
2023-03-26T05:40:25.957Z,4.34
2023-03-26T05:41:25.963Z,4.37
2023-03-26T05:42:25.970Z,4.39
2023-03-26T05:43:25.977Z,4.41
2023-03-26T05:44:25.983Z,4.43
2023-03-26T05:45:25.991Z,4.47
2023-03-26T05:46:26.007Z,4.47
2023-03-26T05:47:26.019Z,4.50
2023-03-26T05:48:26.006Z,4.53
2023-03-26T05:49:26.018Z,4.53
2023-03-26T05:50:26.019Z,4.56
2023-03-26T05:51:26.024Z,4.56
2023-03-26T05:52:26.046Z,4.57
2023-03-26T05:53:26.043Z,4.60
2023-03-26T05:54:26.047Z,4.63
2023-03-26T05:55:26.050Z,4.66
2023-03-26T05:56:26.055Z,4.68
2023-03-26T05:57:26.064Z,4.64
2023-03-26T05:58:26.081Z,4.65
2023-03-26T05:59:26.073Z,4.68
2023-03-26T06:00:26.078Z,4.69
2023-03-26T06:01:26.084Z,4.69
2023-03-26T06:02:26.124Z,4.68
2023-03-26T06:03:26.182Z,4.64
2023-03-26T06:04:26.157Z,4.61
2023-03-26T06:05:26.108Z,4.60
2023-03-26T06:06:26.116Z,4.61
2023-03-26T06:07:26.119Z,4.62
2023-03-26T06:08:26.128Z,4.62
2023-03-26T06:09:26.137Z,4.66
2023-03-26T06:10:26.149Z,4.69
2023-03-26T06:11:26.155Z,4.67
2023-03-26T06:12:26.164Z,4.67
2023-03-26T06:13:26.174Z,4.68
2023-03-26T06:14:26.181Z,4.69
2023-03-26T06:15:26.184Z,4.68
2023-03-26T06:16:27.886Z,4.69
2023-03-26T06:17:26.204Z,4.70
2023-03-26T06:18:26.238Z,4.67
2023-03-26T06:19:26.216Z,4.66
2023-03-26T06:20:26.234Z,4.65
2023-03-26T06:21:26.236Z,4.69
2023-03-26T06:22:26.244Z,4.71
2023-03-26T06:23:26.249Z,4.67
2023-03-26T06:24:26.256Z,4.69
2023-03-26T06:25:26.262Z,4.73
2023-03-26T06:26:26.277Z,4.76
2023-03-26T06:27:26.279Z,4.78
2023-03-26T06:28:26.293Z,4.76
2023-03-26T06:29:26.296Z,4.78
2023-03-26T06:30:26.385Z,4.77
2023-03-26T06:31:26.333Z,4.79
2023-03-26T06:32:26.347Z,4.82
2023-03-26T06:33:26.330Z,4.86
2023-03-26T06:34:26.345Z,4.91
2023-03-26T06:35:26.352Z,4.96
2023-03-26T06:36:26.363Z,5.00
2023-03-26T06:37:26.370Z,5.04
2023-03-26T06:38:26.379Z,5.06
2023-03-26T06:39:26.385Z,5.13
2023-03-26T06:40:26.401Z,5.19
2023-03-26T06:41:26.414Z,5.22
2023-03-26T06:42:32.097Z,5.26
2023-03-26T06:43:26.420Z,5.30
2023-03-26T06:44:26.432Z,5.32
2023-03-26T06:45:26.437Z,5.31
2023-03-26T06:46:26.495Z,5.35
2023-03-26T06:47:26.517Z,5.32
2023-03-26T06:48:26.458Z,5.32
2023-03-26T06:49:26.464Z,5.36
2023-03-26T06:50:26.480Z,5.34
2023-03-26T06:51:26.480Z,5.30
2023-03-26T06:52:26.497Z,5.27
2023-03-26T06:53:26.504Z,5.32
2023-03-26T06:54:26.515Z,5.31
2023-03-26T06:55:26.518Z,5.34
2023-03-26T06:56:26.533Z,5.36
2023-03-26T06:57:26.534Z,5.40
2023-03-26T06:58:26.548Z,5.47
2023-03-26T06:59:26.553Z,5.56
2023-03-26T07:00:26.570Z,5.60
2023-03-26T07:01:26.616Z,5.68
2023-03-26T07:02:26.616Z,5.71
2023-03-26T07:03:26.586Z,5.75
2023-03-26T07:04:26.605Z,5.81
2023-03-26T07:05:26.600Z,5.86
2023-03-26T07:06:26.618Z,5.95
2023-03-26T07:07:26.620Z,5.94
2023-03-26T07:08:26.625Z,5.98
2023-03-26T07:09:26.629Z,5.97
2023-03-26T07:10:26.637Z,5.97
2023-03-26T07:11:26.641Z,5.89
2023-03-26T07:12:26.648Z,5.79
2023-03-26T07:13:26.654Z,5.77
2023-03-26T07:14:26.660Z,5.75
2023-03-26T07:15:26.665Z,5.70
2023-03-26T07:16:26.705Z,5.69
2023-03-26T07:17:26.695Z,5.64
2023-03-26T07:18:26.685Z,5.71
2023-03-26T07:19:26.691Z,5.76
2023-03-26T07:20:26.735Z,5.73
2023-03-26T07:21:26.710Z,5.77
2023-03-26T07:22:26.714Z,5.76
2023-03-26T07:23:26.727Z,5.73
2023-03-26T07:24:26.725Z,5.70
2023-03-26T07:25:26.733Z,5.71
2023-03-26T07:26:26.740Z,5.72
2023-03-26T07:27:26.743Z,5.70
2023-03-26T07:28:26.785Z,5.73
2023-03-26T07:29:26.753Z,5.74
2023-03-26T07:30:26.768Z,5.67
2023-03-26T07:31:26.784Z,5.72
2023-03-26T07:32:26.797Z,5.77
2023-03-26T07:33:26.790Z,5.85
2023-03-26T07:34:26.804Z,5.92
2023-03-26T07:35:26.811Z,5.96
2023-03-26T07:36:26.832Z,5.87
2023-03-26T07:37:26.829Z,5.81
2023-03-26T07:38:26.831Z,5.70
2023-03-26T07:39:28.009Z,5.71
2023-03-26T07:40:26.846Z,5.69
2023-03-26T07:41:26.874Z,5.73
2023-03-26T07:42:26.866Z,5.67
2023-03-26T07:43:26.953Z,5.66
2023-03-26T07:44:26.919Z,5.63
2023-03-26T07:45:26.916Z,5.63
2023-03-26T07:46:26.897Z,5.63
2023-03-26T07:47:26.917Z,5.58
2023-03-26T07:48:26.905Z,5.61
2023-03-26T07:49:26.925Z,5.57
2023-03-26T07:50:26.929Z,5.61
2023-03-26T07:51:26.923Z,5.63
2023-03-26T07:52:26.928Z,5.73
2023-03-26T07:53:26.927Z,5.72
2023-03-26T07:54:26.947Z,5.81
2023-03-26T07:55:26.941Z,5.90
2023-03-26T07:56:26.962Z,5.98
2023-03-26T07:57:27.005Z,6.05
2023-03-26T07:58:26.975Z,6.07
2023-03-26T07:59:26.970Z,6.08
2023-03-26T08:00:26.980Z,6.13
2023-03-26T08:01:27.010Z,6.16
2023-03-26T08:02:27.028Z,6.15
2023-03-26T08:03:27.126Z,6.15
2023-03-26T08:04:27.100Z,6.07
2023-03-26T08:05:27.017Z,5.97
2023-03-26T08:06:27.037Z,6.00
2023-03-26T08:07:27.027Z,6.03
2023-03-26T08:08:27.042Z,6.08
2023-03-26T08:09:27.040Z,6.13
2023-03-26T08:10:27.058Z,6.05
2023-03-26T08:11:27.060Z,6.06
2023-03-26T08:12:27.058Z,6.08
2023-03-26T08:13:27.065Z,6.15
2023-03-26T08:14:27.074Z,6.21
2023-03-26T08:15:27.121Z,6.36
2023-03-26T08:16:27.104Z,6.36
2023-03-26T08:17:27.959Z,6.37
2023-03-26T08:18:27.147Z,6.40
2023-03-26T08:19:27.125Z,6.35
2023-03-26T08:20:27.128Z,6.33
2023-03-26T08:21:27.163Z,6.36
2023-03-26T08:22:27.155Z,6.41
2023-03-26T08:23:27.159Z,6.46
2023-03-26T08:24:27.165Z,6.59
2023-03-26T08:25:27.173Z,6.70
2023-03-26T08:26:27.182Z,6.84
2023-03-26T08:27:27.222Z,6.94
2023-03-26T08:28:27.223Z,7.03
2023-03-26T08:29:27.272Z,7.02
2023-03-26T08:30:27.216Z,6.99
2023-03-26T08:31:27.233Z,6.89
2023-03-26T08:32:27.256Z,6.82
2023-03-26T08:33:27.242Z,6.80
2023-03-26T08:34:27.248Z,6.77
2023-03-26T08:35:27.280Z,6.84
2023-03-26T08:36:27.262Z,6.91
2023-03-26T08:37:27.366Z,6.98
2023-03-26T08:38:27.276Z,7.10
2023-03-26T08:39:27.290Z,7.15
2023-03-26T08:40:27.296Z,6.99
2023-03-26T08:41:27.302Z,6.88
2023-03-26T08:42:27.311Z,6.82
2023-03-26T08:43:27.310Z,6.80
2023-03-26T08:44:27.323Z,6.58
2023-03-26T08:45:27.340Z,6.41
2023-03-26T08:46:27.368Z,6.26
2023-03-26T08:47:27.356Z,6.12
2023-03-26T08:48:27.355Z,6.05
2023-03-26T08:49:29.207Z,5.99
2023-03-26T08:50:27.371Z,5.97
2023-03-26T08:51:27.387Z,5.96
2023-03-26T08:52:27.406Z,5.93
2023-03-26T08:53:27.391Z,6.06
2023-03-26T08:54:27.403Z,6.15
2023-03-26T08:55:27.408Z,6.23
2023-03-26T08:56:27.423Z,6.19
2023-03-26T08:57:27.423Z,6.14
2023-03-26T08:58:27.425Z,6.11
2023-03-26T08:59:27.440Z,6.12
2023-03-26T09:00:27.445Z,6.05
2023-03-26T09:01:27.465Z,6.01
2023-03-26T09:02:27.496Z,6.05
2023-03-26T09:03:27.474Z,6.06
2023-03-26T09:04:27.478Z,6.12
2023-03-26T09:05:27.479Z,6.20
2023-03-26T09:06:27.484Z,6.26
2023-03-26T09:07:27.494Z,6.30
2023-03-26T09:08:30.197Z,6.33
2023-03-26T09:09:27.508Z,6.47
2023-03-26T09:10:27.522Z,6.64
2023-03-26T09:11:27.516Z,6.82
2023-03-26T09:12:27.532Z,6.95
2023-03-26T09:13:27.535Z,7.13
2023-03-26T09:14:27.561Z,7.20
2023-03-26T09:15:27.551Z,7.31
2023-03-26T09:16:27.615Z,7.42
2023-03-26T09:17:27.611Z,7.58
2023-03-26T09:18:27.581Z,7.64
2023-03-26T09:19:27.586Z,7.64
2023-03-26T09:20:27.598Z,7.69
2023-03-26T09:21:27.599Z,7.71
2023-03-26T09:22:27.611Z,7.57
2023-03-26T09:23:27.613Z,7.28
2023-03-26T09:24:27.744Z,7.13
2023-03-26T09:25:27.628Z,7.06
2023-03-26T09:26:27.636Z,6.96
2023-03-26T09:27:27.643Z,6.89
2023-03-26T09:28:27.651Z,6.89
2023-03-26T09:29:27.658Z,6.91
2023-03-26T09:30:27.664Z,6.85
2023-03-26T09:31:27.699Z,6.79
2023-03-26T09:32:27.715Z,6.82
2023-03-26T09:33:27.690Z,6.84
2023-03-26T09:34:27.700Z,6.98
2023-03-26T09:35:27.723Z,7.01
2023-03-26T09:36:27.714Z,7.13
2023-03-26T09:37:27.722Z,7.25
2023-03-26T09:38:27.738Z,7.33
2023-03-26T09:39:27.736Z,7.43
2023-03-26T09:40:27.745Z,7.48
2023-03-26T09:41:27.757Z,7.60
2023-03-26T09:42:27.761Z,7.64
2023-03-26T09:43:27.764Z,7.54
2023-03-26T09:44:27.780Z,7.46
2023-03-26T09:45:27.839Z,7.39
2023-03-26T09:46:27.793Z,7.36
2023-03-26T09:47:27.840Z,7.32
2023-03-26T09:48:27.809Z,7.38
2023-03-26T09:49:27.836Z,7.39
2023-03-26T09:50:27.822Z,7.44
2023-03-26T09:51:27.848Z,7.43
2023-03-26T09:52:27.840Z,7.49
2023-03-26T09:53:27.846Z,7.59
2023-03-26T09:54:27.853Z,7.68
2023-03-26T09:55:27.860Z,7.83
2023-03-26T09:56:27.866Z,7.91
2023-03-26T09:57:27.904Z,8.02
2023-03-26T09:58:27.876Z,8.11
2023-03-26T09:59:27.900Z,8.24
2023-03-26T10:00:27.897Z,8.32
2023-03-26T10:01:27.916Z,8.39
2023-03-26T10:02:45.265Z,8.38
2023-03-26T10:03:28.021Z,8.24
2023-03-26T10:04:27.958Z,8.19
2023-03-26T10:05:27.944Z,8.08
2023-03-26T10:06:27.969Z,7.96
2023-03-26T10:07:27.966Z,7.74
2023-03-26T10:08:28.824Z,7.61
2023-03-26T10:09:27.988Z,7.50
2023-03-26T10:10:27.996Z,7.47
2023-03-26T10:11:27.997Z,7.46
2023-03-26T10:12:28.007Z,7.54
2023-03-26T10:13:28.004Z,7.63
2023-03-26T10:14:28.020Z,7.75
2023-03-26T10:15:28.029Z,7.85
2023-03-26T10:16:28.114Z,8.01
2023-03-26T10:17:28.069Z,8.23
2023-03-26T10:18:29.430Z,8.48
2023-03-26T10:19:28.054Z,8.65
2023-03-26T10:20:28.064Z,8.74
2023-03-26T10:21:28.611Z,8.76
2023-03-26T10:22:28.097Z,8.76
2023-03-26T10:23:28.082Z,8.67
2023-03-26T10:24:28.099Z,8.61
2023-03-26T10:25:28.102Z,8.63
2023-03-26T10:26:28.107Z,8.66
2023-03-26T10:27:28.120Z,8.62
2023-03-26T10:28:28.118Z,8.62
2023-03-26T10:29:28.131Z,8.52
2023-03-26T10:30:28.163Z,8.34
2023-03-26T10:31:28.267Z,8.18
2023-03-26T10:32:28.163Z,8.00
2023-03-26T10:33:28.167Z,7.96
2023-03-26T10:34:29.509Z,7.96
2023-03-26T10:35:28.187Z,8.08
2023-03-26T10:36:28.187Z,8.14
2023-03-26T10:37:28.199Z,8.24
2023-03-26T10:38:28.203Z,8.34
2023-03-26T10:39:35.909Z,8.47
2023-03-26T10:40:28.218Z,8.57
2023-03-26T10:41:28.225Z,8.70
2023-03-26T10:42:28.236Z,8.80
2023-03-26T10:43:28.257Z,8.72
2023-03-26T10:44:28.250Z,8.59
2023-03-26T10:45:28.303Z,8.48
2023-03-26T10:46:28.291Z,8.35
2023-03-26T10:47:28.292Z,8.21
2023-03-26T10:48:28.284Z,8.03
2023-03-26T10:49:28.297Z,7.96
2023-03-26T10:50:28.304Z,7.88
2023-03-26T10:51:28.311Z,7.86
2023-03-26T10:52:28.321Z,7.78
2023-03-26T10:53:28.324Z,7.84
2023-03-26T10:54:28.329Z,7.89
2023-03-26T10:55:28.426Z,7.96
2023-03-26T10:56:28.351Z,7.93
2023-03-26T10:57:28.356Z,7.97
2023-03-26T10:58:28.359Z,8.05
2023-03-26T10:59:28.366Z,8.17
2023-03-26T11:00:28.374Z,8.36
2023-03-26T11:01:28.420Z,8.54
2023-03-26T11:02:29.222Z,8.69
2023-03-26T11:03:28.402Z,8.88
2023-03-26T11:04:28.410Z,8.93
2023-03-26T11:05:28.470Z,8.99
2023-03-26T11:06:28.431Z,8.99
2023-03-26T11:07:28.441Z,9.00
2023-03-26T11:08:31.042Z,8.97
2023-03-26T11:09:28.456Z,9.00
2023-03-26T11:10:28.465Z,9.06
2023-03-26T11:11:28.474Z,9.19
2023-03-26T11:12:28.522Z,9.27
2023-03-26T11:13:28.491Z,9.40
2023-03-26T11:14:34.672Z,9.45
2023-03-26T11:15:28.542Z,9.39
2023-03-26T11:16:28.524Z,9.33
2023-03-26T11:17:39.259Z,9.21
2023-03-26T11:18:28.584Z,9.06
2023-03-26T11:19:28.551Z,9.01
2023-03-26T11:20:28.573Z,8.89
2023-03-26T11:21:28.569Z,8.74
2023-03-26T11:22:28.577Z,8.73
2023-03-26T11:23:28.582Z,8.76
2023-03-26T11:24:28.589Z,8.84
2023-03-26T11:25:28.598Z,8.98
2023-03-26T11:26:28.605Z,9.03
2023-03-26T11:27:28.614Z,9.08
2023-03-26T11:28:28.624Z,9.20
2023-03-26T11:29:31.149Z,9.28
2023-03-26T11:30:28.644Z,9.23
2023-03-26T11:31:28.680Z,9.19
2023-03-26T11:32:28.692Z,8.87
2023-03-26T11:33:32.674Z,8.66
2023-03-26T11:34:28.673Z,8.49
2023-03-26T11:35:39.311Z,8.27
2023-03-26T11:36:28.706Z,8.09
2023-03-26T11:37:28.690Z,7.90
2023-03-26T11:38:28.707Z,7.74
2023-03-26T11:39:28.712Z,7.67
2023-03-26T11:40:28.714Z,7.61
2023-03-26T11:41:28.730Z,7.66
2023-03-26T11:42:28.740Z,7.72
2023-03-26T11:43:28.745Z,7.82
2023-03-26T11:44:28.761Z,7.92
2023-03-26T11:45:28.756Z,8.06
2023-03-26T11:46:28.774Z,8.20
2023-03-26T11:47:28.784Z,8.31
2023-03-26T11:48:28.784Z,8.44
2023-03-26T11:49:28.791Z,8.56
2023-03-26T11:50:28.803Z,8.65
2023-03-26T11:51:28.809Z,8.67
2023-03-26T11:52:28.818Z,8.64
2023-03-26T11:53:28.825Z,8.61
2023-03-26T11:54:28.827Z,8.52
2023-03-26T11:55:28.837Z,8.38
2023-03-26T11:56:28.842Z,8.14
2023-03-26T11:57:28.896Z,8.04
2023-03-26T11:58:28.852Z,7.91
2023-03-26T11:59:28.872Z,7.88
2023-03-26T12:00:28.894Z,7.82
2023-03-26T12:01:28.878Z,7.81
2023-03-26T12:02:29.258Z,7.76
2023-03-26T12:03:28.891Z,7.74
2023-03-26T12:04:31.388Z,7.72
2023-03-26T12:05:28.920Z,7.77
2023-03-26T12:06:28.926Z,7.81
2023-03-26T12:07:28.934Z,7.79
2023-03-26T12:08:28.942Z,7.79
2023-03-26T12:09:28.947Z,7.74
2023-03-26T12:10:28.953Z,7.72
2023-03-26T12:11:28.965Z,7.67
2023-03-26T12:12:28.978Z,7.60
2023-03-26T12:13:28.982Z,7.56
2023-03-26T12:14:29.000Z,7.55
2023-03-26T12:15:29.000Z,7.54
2023-03-26T12:16:29.052Z,7.55
2023-03-26T12:17:31.010Z,7.56
2023-03-26T12:18:29.024Z,7.55
2023-03-26T12:19:29.064Z,7.64
2023-03-26T12:20:29.038Z,7.71
2023-03-26T12:21:29.046Z,7.82
2023-03-26T12:22:29.057Z,7.89
2023-03-26T12:23:29.066Z,7.96
2023-03-26T12:24:29.078Z,7.98
2023-03-26T12:25:29.085Z,8.00
2023-03-26T12:26:29.091Z,8.03
2023-03-26T12:27:29.099Z,8.06
2023-03-26T12:28:29.139Z,8.04
2023-03-26T12:29:29.144Z,8.04
2023-03-26T12:30:29.203Z,8.01
2023-03-26T12:31:29.182Z,7.93
2023-03-26T12:32:39.362Z,7.87
2023-03-26T12:33:29.267Z,7.84
2023-03-26T12:34:29.238Z,7.80
2023-03-26T12:35:29.337Z,7.73
2023-03-26T12:36:29.199Z,7.68
2023-03-26T12:37:29.252Z,7.59
2023-03-26T12:38:29.243Z,7.57
2023-03-26T12:40:08.207Z,7.53
2023-03-26T12:40:29.253Z,7.54
2023-03-26T12:42:36.850Z,7.54
2023-03-26T12:44:45.262Z,7.55
2023-03-26T12:44:45.346Z,7.53
2023-03-26T12:44:52.433Z,7.58
2023-03-26T12:45:29.267Z,7.60
2023-03-26T12:47:54.285Z,7.58
2023-03-26T12:47:55.765Z,7.62
2023-03-26T12:48:29.334Z,7.70
2023-03-26T12:49:29.366Z,7.73
2023-03-26T12:50:33.917Z,7.76
2023-03-26T12:51:29.361Z,7.79
2023-03-26T12:52:29.355Z,7.76
2023-03-26T12:53:29.368Z,7.71
2023-03-26T12:54:29.364Z,7.70
2023-03-26T12:55:29.373Z,7.71
2023-03-26T12:56:29.389Z,7.71
2023-03-26T12:57:29.449Z,7.73
2023-03-26T12:58:29.417Z,7.80
2023-03-26T12:59:29.427Z,7.80
2023-03-26T13:00:29.428Z,7.85
2023-03-26T13:01:29.527Z,7.88
2023-03-26T13:02:29.621Z,7.89
2023-03-26T13:03:29.543Z,7.87
2023-03-26T13:04:29.457Z,7.85
2023-03-26T13:05:29.479Z,7.79
2023-03-26T13:06:29.507Z,7.75
2023-03-26T13:07:29.475Z,7.72
2023-03-26T13:08:29.555Z,7.72
2023-03-26T13:09:29.473Z,7.72
2023-03-26T13:10:29.492Z,7.73
2023-03-26T13:11:29.503Z,7.77
2023-03-26T13:12:29.511Z,7.81
2023-03-26T13:13:29.514Z,7.85
2023-03-26T13:14:29.526Z,7.89
2023-03-26T13:15:29.533Z,7.95
2023-03-26T13:16:29.570Z,7.97
2023-03-26T13:17:29.568Z,7.99
2023-03-26T13:18:29.572Z,8.05
2023-03-26T13:19:29.589Z,8.07
2023-03-26T13:20:29.602Z,8.08
2023-03-26T13:21:29.599Z,8.07
2023-03-26T13:22:29.612Z,8.08
2023-03-26T13:23:29.629Z,8.08
2023-03-26T13:24:29.626Z,8.13
2023-03-26T13:25:29.636Z,8.14
2023-03-26T13:26:29.639Z,8.14
2023-03-26T13:27:29.646Z,8.09
2023-03-26T13:28:29.662Z,8.05
2023-03-26T13:29:29.666Z,8.04
2023-03-26T13:30:29.681Z,8.02
2023-03-26T13:31:29.744Z,7.99
2023-03-26T13:32:29.748Z,7.95
2023-03-26T13:33:29.721Z,7.92
2023-03-26T13:34:29.722Z,7.90
2023-03-26T13:35:29.854Z,7.87